Wind EuroAirport

Messzeit Windrichtung Windgeschwindigkeit [Knoten] Rückenwind Nordpiste [Knoten] METAR
2021-10-19 11:00 S 160° 6 - LFSB 190900Z 16006KT CAVOK 13/09 Q1026 NOSIG
2021-10-19 10:30 S 160° 4 - LFSB 190830Z 16004KT CAVOK 12/10 Q1026 NOSIG
2021-10-19 10:00 S 160°
(130°–200°)
6 - LFSB 190800Z 16006KT 130V200 CAVOK 11/09 Q1026 NOSIG
2021-10-19 09:30 S 170° 3 - LFSB 190730Z 17003KT CAVOK 11/09 Q1026 NOSIG
2021-10-19 09:00 S 170°
(140°–200°)
4 - LFSB 190700Z 17004KT 140V200 CAVOK 10/09 Q1026 NOSIG
2021-10-19 08:00 S 160° 7 - LFSB 190600Z 16007KT 9999 -RA NSC 10/09 Q1025 NOSIG
2021-10-19 07:30 S 180° 5 - LFSB 190530Z 18005KT CAVOK 10/08 Q1026 NOSIG
2021-10-19 07:00 S 160° 5 - LFSB 190500Z 16005KT CAVOK 10/08 Q1026 NOSIG
2021-10-19 06:30 S 160° 6 - LFSB 190430Z AUTO 16006KT CAVOK 10/08 Q1025 TEMPO 4000 MIFG
2021-10-19 06:00 S 170° 6 - LFSB 190400Z AUTO 17006KT CAVOK 10/08 Q1025 TEMPO 4000 MIFG
2021-10-19 05:30 S 180° 5 - LFSB 190330Z AUTO 18005KT CAVOK 09/08 Q1025 TEMPO 4000 MIFG
2021-10-19 05:00 S 170°
(150°–220°)
5 - LFSB 190300Z AUTO 17005KT 150V220 CAVOK 10/08 Q1025 TEMPO 4000 MIFG
2021-10-19 04:30 S 180° 4 - LFSB 190230Z AUTO 18004KT CAVOK 10/08 Q1025 TEMPO 4000 MIFG
2021-10-19 04:00 S 200°
(170°–240°)
5 - LFSB 190200Z AUTO 20005KT 170V240 CAVOK 10/08 Q1025 TEMPO 4000 MIFG
2021-10-19 03:30 S 200° 5 - LFSB 190130Z AUTO 20005KT CAVOK 09/08 Q1025 TEMPO 4000 MIFG
2021-10-19 03:00 S 170° 5 - LFSB 190100Z AUTO 17005KT CAVOK 09/08 Q1025 TEMPO 4000 MIFG
2021-10-19 02:30 S 170° 7 - LFSB 190030Z AUTO 17007KT CAVOK 09/08 Q1025 TEMPO 4000 MIFG
2021-10-19 02:00 S 180° 6 - LFSB 190000Z AUTO 18006KT CAVOK 09/09 Q1025 TEMPO 4000 MIFG
2021-10-19 01:30 SW 210°
(180°–260°)
4 0–1 LFSB 182330Z AUTO 21004KT 180V260 CAVOK 09/08 Q1026 TEMPO 4000 MIFG
2021-10-19 01:00 S 160° 5 - LFSB 182300Z AUTO 16005KT 8000 NSC 09/08 Q1025 TEMPO 4000 MIFG
2021-10-19 00:30 S 180° 3 - LFSB 182230Z AUTO 18003KT 7000 NSC 07/06 Q1025 TEMPO 4000 MIFG
2021-10-19 00:00 S 200° 3 - LFSB 182200Z AUTO 20003KT 6000 NSC 06/06 Q1025 TEMPO 4000 MIFG
2021-10-18 23:30 NW 310° 2 2 LFSB 182130Z AUTO 31002KT 5000 1700 R33/1300U BR FEW014 07/06 Q1025 NOSIG
2021-10-18 23:00 W 260° 3 1 LFSB 182100Z AUTO 26003KT 6000 NSC 06/06 Q1025 TEMPO 4000 MIFG
2021-10-18 22:30 - 2 - LFSB 182030Z AUTO VRB02KT 7000 NSC 07/06 Q1025 TEMPO 4000 MIFG
2021-10-18 22:00 SO 150° 3 - LFSB 182000Z AUTO 15003KT 7000 NSC 07/07 Q1025 TEMPO 4000 MIFG
2021-10-18 21:30 S 200° 3 - LFSB 181930Z AUTO 20003KT 8000 NSC 08/07 Q1025 TEMPO 4000 MIFG
2021-10-18 21:00 SW 230° 3 - LFSB 181900Z AUTO 23003KT 8000 NSC 07/07 Q1025 TEMPO 4000 MIFG
2021-10-18 20:30 SW 240° 4 - LFSB 181830Z AUTO 24004KT CAVOK 08/07 Q1025 TEMPO 4000 MIFG
2021-10-18 20:00 NW 300° 3 2 LFSB 181800Z AUTO 30003KT CAVOK 09/08 Q1024 NOSIG
2021-10-18 19:30 W 260° 2 - LFSB 181730Z AUTO 26002KT CAVOK 09/08 Q1024 NOSIG
2021-10-18 19:00 W 290° 4 3 LFSB 181700Z 29004KT CAVOK 11/08 Q1024 NOSIG
2021-10-18 18:30 N 350° 3 3 LFSB 181630Z 35003KT CAVOK 13/09 Q1023 NOSIG
2021-10-18 18:00 N 340° 5 5 LFSB 181600Z 34005KT CAVOK 14/10 Q1024 NOSIG
2021-10-18 17:30 N 20° 3 2 LFSB 181530Z 02003KT CAVOK 16/10 Q1024 NOSIG
2021-10-18 17:00 - 3 - LFSB 181500Z VRB03KT CAVOK 17/10 Q1024 NOSIG
2021-10-18 16:30 - 2 - LFSB 181430Z VRB02KT CAVOK 17/09 Q1024 NOSIG
2021-10-18 16:00 - 1 - LFSB 181400Z VRB01KT CAVOK 18/09 Q1024 NOSIG
2021-10-18 15:30 - 2 - LFSB 181330Z VRB02KT CAVOK 18/09 Q1024 NOSIG
2021-10-18 15:00 SO 120°
(80°–150°)
4 - LFSB 181300Z 12004KT 080V150 CAVOK 16/08 Q1024 NOSIG
2021-10-18 14:30 - 3 - LFSB 181230Z VRB03KT CAVOK 17/09 Q1024 NOSIG
2021-10-18 14:00 - 2 - LFSB 181200Z VRB02KT CAVOK 16/09 Q1025 NOSIG
2021-10-18 13:30 - 2 - LFSB 181130Z VRB02KT CAVOK 15/08 Q1025 NOSIG
2021-10-18 13:00 - 2 - LFSB 181100Z VRB02KT 9999 FEW016 14/08 Q1025 NOSIG
2021-10-18 12:30 - 2 - LFSB 181030Z VRB02KT 9999 FEW013 13/08 Q1025 NOSIG
2021-10-18 12:00 - 2 - LFSB 181000Z VRB02KT 9999 FEW010 11/08 Q1026 NOSIG